sensor_id;sensor_type;location;lat;lon;timestamp;P1;durP1;ratioP1;P2;durP2;ratioP2
64282;SDS011;50497;50.720;-2.084;2023-04-24T00:00:40;21.08;;;9.57;;
64282;SDS011;50497;50.720;-2.084;2023-04-24T00:03:10;22.48;;;9.15;;
64282;SDS011;50497;50.720;-2.084;2023-04-24T00:05:36;23.45;;;10.02;;
64282;SDS011;50497;50.720;-2.084;2023-04-24T00:08:01;20.67;;;9.27;;
64282;SDS011;50497;50.720;-2.084;2023-04-24T00:10:26;21.83;;;9.38;;
64282;SDS011;50497;50.720;-2.084;2023-04-24T00:12:52;20.50;;;9.73;;
64282;SDS011;50497;50.720;-2.084;2023-04-24T00:15:21;24.13;;;9.05;;
64282;SDS011;50497;50.720;-2.084;2023-04-24T00:17:47;22.20;;;9.98;;
64282;SDS011;50497;50.720;-2.084;2023-04-24T00:20:12;21.60;;;9.10;;
64282;SDS011;50497;50.720;-2.084;2023-04-24T00:22:39;21.40;;;9.15;;
64282;SDS011;50497;50.720;-2.084;2023-04-24T00:25:05;20.75;;;9.25;;
64282;SDS011;50497;50.720;-2.084;2023-04-24T00:27:31;20.95;;;8.93;;
64282;SDS011;50497;50.720;-2.084;2023-04-24T00:30:01;21.83;;;9.73;;
64282;SDS011;50497;50.720;-2.084;2023-04-24T00:32:27;21.50;;;9.52;;
64282;SDS011;50497;50.720;-2.084;2023-04-24T00:34:55;19.02;;;7.72;;
64282;SDS011;50497;50.720;-2.084;2023-04-24T00:37:21;23.15;;;9.90;;
64282;SDS011;50497;50.720;-2.084;2023-04-24T00:39:46;20.70;;;9.27;;
64282;SDS011;50497;50.720;-2.084;2023-04-24T00:42:12;19.48;;;8.68;;
64282;SDS011;50497;50.720;-2.084;2023-04-24T00:44:40;22.63;;;9.10;;
64282;SDS011;50497;50.720;-2.084;2023-04-24T00:47:06;19.88;;;8.68;;
64282;SDS011;50497;50.720;-2.084;2023-04-24T00:49:32;19.00;;;8.45;;
64282;SDS011;50497;50.720;-2.084;2023-04-24T00:51:57;20.55;;;9.20;;
64282;SDS011;50497;50.720;-2.084;2023-04-24T00:54:24;20.65;;;9.55;;
64282;SDS011;50497;50.720;-2.084;2023-04-24T00:56:50;21.20;;;9.23;;
64282;SDS011;50497;50.720;-2.084;2023-04-24T00:59:17;19.27;;;8.85;;
64282;SDS011;50497;50.720;-2.084;2023-04-24T01:01:43;21.52;;;8.68;;
64282;SDS011;50497;50.720;-2.084;2023-04-24T01:04:11;19.63;;;8.93;;
64282;SDS011;50497;50.720;-2.084;2023-04-24T01:06:38;19.55;;;8.20;;
64282;SDS011;50497;50.720;-2.084;2023-04-24T01:09:13;19.65;;;9.00;;
64282;SDS011;50497;50.720;-2.084;2023-04-24T01:11:40;19.90;;;9.05;;
64282;SDS011;50497;50.720;-2.084;2023-04-24T01:14:09;19.80;;;8.95;;
64282;SDS011;50497;50.720;-2.084;2023-04-24T01:16:35;20.00;;;8.27;;
64282;SDS011;50497;50.720;-2.084;2023-04-24T01:19:03;21.20;;;8.95;;
64282;SDS011;50497;50.720;-2.084;2023-04-24T01:21:29;19.08;;;8.52;;
64282;SDS011;50497;50.720;-2.084;2023-04-24T01:23:55;20.23;;;8.20;;
64282;SDS011;50497;50.720;-2.084;2023-04-24T01:26:21;19.15;;;8.18;;
64282;SDS011;50497;50.720;-2.084;2023-04-24T01:28:48;20.33;;;8.88;;
64282;SDS011;50497;50.720;-2.084;2023-04-24T01:31:14;17.88;;;8.05;;
64282;SDS011;50497;50.720;-2.084;2023-04-24T01:33:41;18.02;;;7.97;;
64282;SDS011;50497;50.720;-2.084;2023-04-24T01:36:08;18.08;;;8.10;;
64282;SDS011;50497;50.720;-2.084;2023-04-24T01:38:35;20.42;;;8.07;;
64282;SDS011;50497;50.720;-2.084;2023-04-24T01:41:01;18.00;;;8.35;;
64282;SDS011;50497;50.720;-2.084;2023-04-24T01:43:27;17.40;;;7.60;;
64282;SDS011;50497;50.720;-2.084;2023-04-24T01:45:53;17.20;;;7.85;;
64282;SDS011;50497;50.720;-2.084;2023-04-24T01:48:18;19.83;;;8.15;;
64282;SDS011;50497;50.720;-2.084;2023-04-24T01:50:44;18.85;;;8.38;;
64282;SDS011;50497;50.720;-2.084;2023-04-24T01:53:09;17.98;;;8.13;;
64282;SDS011;50497;50.720;-2.084;2023-04-24T01:55:35;20.85;;;8.73;;
64282;SDS011;50497;50.720;-2.084;2023-04-24T01:58:00;21.58;;;8.20;;
64282;SDS011;50497;50.720;-2.084;2023-04-24T02:00:27;20.17;;;7.90;;
64282;SDS011;50497;50.720;-2.084;2023-04-24T02:02:52;17.10;;;7.20;;
64282;SDS011;50497;50.720;-2.084;2023-04-24T02:05:18;18.65;;;8.48;;
64282;SDS011;50497;50.720;-2.084;2023-04-24T02:07:43;20.80;;;8.10;;
64282;SDS011;50497;50.720;-2.084;2023-04-24T02:10:09;18.15;;;7.80;;
64282;SDS011;50497;50.720;-2.084;2023-04-24T02:12:35;17.75;;;7.95;;
64282;SDS011;50497;50.720;-2.084;2023-04-24T02:15:00;17.70;;;7.70;;
64282;SDS011;50497;50.720;-2.084;2023-04-24T02:17:26;20.00;;;8.23;;
64282;SDS011;50497;50.720;-2.084;2023-04-24T02:19:51;18.73;;;7.57;;
64282;SDS011;50497;50.720;-2.084;2023-04-24T02:22:17;19.42;;;7.65;;
64282;SDS011;50497;50.720;-2.084;2023-04-24T02:24:42;18.30;;;8.10;;
64282;SDS011;50497;50.720;-2.084;2023-04-24T02:27:11;17.50;;;7.63;;
64282;SDS011;50497;50.720;-2.084;2023-04-24T02:29:36;20.30;;;8.27;;
64282;SDS011;50497;50.720;-2.084;2023-04-24T02:32:02;18.00;;;7.80;;
64282;SDS011;50497;50.720;-2.084;2023-04-24T02:34:27;18.00;;;8.23;;
64282;SDS011;50497;50.720;-2.084;2023-04-24T02:36:53;21.17;;;8.02;;
64282;SDS011;50497;50.720;-2.084;2023-04-24T02:39:21;17.88;;;7.82;;
64282;SDS011;50497;50.720;-2.084;2023-04-24T02:41:46;17.23;;;7.65;;
64282;SDS011;50497;50.720;-2.084;2023-04-24T02:44:12;18.27;;;7.65;;
64282;SDS011;50497;50.720;-2.084;2023-04-24T02:46:39;18.02;;;7.97;;
64282;SDS011;50497;50.720;-2.084;2023-04-24T02:49:06;18.23;;;7.90;;
64282;SDS011;50497;50.720;-2.084;2023-04-24T02:51:32;18.80;;;8.00;;
64282;SDS011;50497;50.720;-2.084;2023-04-24T02:53:57;18.48;;;8.23;;
64282;SDS011;50497;50.720;-2.084;2023-04-24T02:56:23;20.63;;;8.35;;
64282;SDS011;50497;50.720;-2.084;2023-04-24T03:01:15;19.00;;;8.00;;
64282;SDS011;50497;50.720;-2.084;2023-04-24T03:03:40;17.85;;;7.45;;
64282;SDS011;50497;50.720;-2.084;2023-04-24T03:06:06;17.83;;;7.82;;
64282;SDS011;50497;50.720;-2.084;2023-04-24T03:08:33;21.45;;;8.63;;
64282;SDS011;50497;50.720;-2.084;2023-04-24T03:10:58;21.10;;;8.23;;
64282;SDS011;50497;50.720;-2.084;2023-04-24T03:13:26;19.65;;;7.93;;
64282;SDS011;50497;50.720;-2.084;2023-04-24T03:15:52;23.80;;;8.88;;
64282;SDS011;50497;50.720;-2.084;2023-04-24T03:18:18;20.13;;;8.05;;
64282;SDS011;50497;50.720;-2.084;2023-04-24T03:20:45;19.45;;;8.07;;
64282;SDS011;50497;50.720;-2.084;2023-04-24T03:23:11;19.80;;;7.80;;
64282;SDS011;50497;50.720;-2.084;2023-04-24T03:25:37;21.13;;;8.30;;
64282;SDS011;50497;50.720;-2.084;2023-04-24T03:28:02;18.77;;;7.88;;
64282;SDS011;50497;50.720;-2.084;2023-04-24T03:30:31;23.73;;;8.65;;
64282;SDS011;50497;50.720;-2.084;2023-04-24T03:32:56;20.20;;;9.35;;
64282;SDS011;50497;50.720;-2.084;2023-04-24T03:35:22;22.50;;;9.05;;
64282;SDS011;50497;50.720;-2.084;2023-04-24T03:37:52;19.48;;;8.15;;
64282;SDS011;50497;50.720;-2.084;2023-04-24T03:40:17;19.98;;;8.77;;
64282;SDS011;50497;50.720;-2.084;2023-04-24T03:42:42;23.25;;;9.48;;
64282;SDS011;50497;50.720;-2.084;2023-04-24T03:45:08;19.60;;;8.00;;
64282;SDS011;50497;50.720;-2.084;2023-04-24T03:47:37;21.40;;;8.70;;
64282;SDS011;50497;50.720;-2.084;2023-04-24T03:50:02;22.60;;;8.77;;
64282;SDS011;50497;50.720;-2.084;2023-04-24T03:52:28;19.77;;;8.85;;
64282;SDS011;50497;50.720;-2.084;2023-04-24T03:54:53;21.10;;;9.20;;
64282;SDS011;50497;50.720;-2.084;2023-04-24T03:57:20;23.08;;;8.82;;
64282;SDS011;50497;50.720;-2.084;2023-04-24T03:59:46;23.05;;;9.73;;
64282;SDS011;50497;50.720;-2.084;2023-04-24T04:02:11;20.52;;;8.70;;
64282;SDS011;50497;50.720;-2.084;2023-04-24T04:04:37;23.65;;;9.02;;
64282;SDS011;50497;50.720;-2.084;2023-04-24T04:07:03;21.40;;;9.40;;
64282;SDS011;50497;50.720;-2.084;2023-04-24T04:09:32;20.38;;;9.02;;
64282;SDS011;50497;50.720;-2.084;2023-04-24T04:11:58;21.17;;;8.32;;
64282;SDS011;50497;50.720;-2.084;2023-04-24T04:14:27;17.60;;;8.00;;
64282;SDS011;50497;50.720;-2.084;2023-04-24T04:17:00;21.73;;;8.63;;
64282;SDS011;50497;50.720;-2.084;2023-04-24T04:19:25;23.33;;;8.80;;
64282;SDS011;50497;50.720;-2.084;2023-04-24T04:21:54;26.63;;;9.60;;
64282;SDS011;50497;50.720;-2.084;2023-04-24T04:24:21;21.33;;;9.20;;
64282;SDS011;50497;50.720;-2.084;2023-04-24T04:26:47;24.35;;;9.30;;
64282;SDS011;50497;50.720;-2.084;2023-04-24T04:29:16;25.27;;;9.05;;
64282;SDS011;50497;50.720;-2.084;2023-04-24T04:31:47;21.13;;;8.88;;
64282;SDS011;50497;50.720;-2.084;2023-04-24T04:34:13;22.30;;;8.40;;
64282;SDS011;50497;50.720;-2.084;2023-04-24T04:36:39;22.33;;;8.82;;
64282;SDS011;50497;50.720;-2.084;2023-04-24T04:39:09;22.08;;;9.48;;
64282;SDS011;50497;50.720;-2.084;2023-04-24T04:41:40;21.13;;;8.85;;
64282;SDS011;50497;50.720;-2.084;2023-04-24T04:44:11;23.80;;;9.68;;
64282;SDS011;50497;50.720;-2.084;2023-04-24T04:46:37;24.90;;;9.43;;
64282;SDS011;50497;50.720;-2.084;2023-04-24T04:49:03;25.67;;;9.98;;
64282;SDS011;50497;50.720;-2.084;2023-04-24T04:51:29;26.67;;;9.65;;
64282;SDS011;50497;50.720;-2.084;2023-04-24T04:53:55;24.83;;;9.55;;
64282;SDS011;50497;50.720;-2.084;2023-04-24T04:56:20;19.75;;;8.77;;
64282;SDS011;50497;50.720;-2.084;2023-04-24T04:58:46;22.20;;;9.30;;
64282;SDS011;50497;50.720;-2.084;2023-04-24T05:01:12;22.60;;;8.30;;
64282;SDS011;50497;50.720;-2.084;2023-04-24T05:03:37;21.98;;;8.82;;
64282;SDS011;50497;50.720;-2.084;2023-04-24T05:06:03;23.35;;;8.85;;
64282;SDS011;50497;50.720;-2.084;2023-04-24T05:08:29;21.58;;;8.57;;
64282;SDS011;50497;50.720;-2.084;2023-04-24T05:10:54;22.75;;;9.13;;
64282;SDS011;50497;50.720;-2.084;2023-04-24T05:13:20;24.27;;;9.55;;
64282;SDS011;50497;50.720;-2.084;2023-04-24T05:15:46;23.90;;;9.63;;
64282;SDS011;50497;50.720;-2.084;2023-04-24T05:18:11;24.10;;;9.35;;
64282;SDS011;50497;50.720;-2.084;2023-04-24T05:20:40;25.88;;;9.77;;
64282;SDS011;50497;50.720;-2.084;2023-04-24T05:23:09;25.20;;;9.93;;
64282;SDS011;50497;50.720;-2.084;2023-04-24T05:25:35;25.42;;;10.43;;
64282;SDS011;50497;50.720;-2.084;2023-04-24T05:28:01;25.45;;;9.55;;
64282;SDS011;50497;50.720;-2.084;2023-04-24T05:30:27;25.20;;;9.82;;
64282;SDS011;50497;50.720;-2.084;2023-04-24T05:32:53;24.10;;;9.32;;
64282;SDS011;50497;50.720;-2.084;2023-04-24T05:35:18;25.85;;;9.65;;
64282;SDS011;50497;50.720;-2.084;2023-04-24T05:37:44;24.33;;;9.70;;
64282;SDS011;50497;50.720;-2.084;2023-04-24T05:40:10;25.23;;;9.77;;
64282;SDS011;50497;50.720;-2.084;2023-04-24T05:42:36;24.80;;;9.90;;
64282;SDS011;50497;50.720;-2.084;2023-04-24T05:45:01;26.70;;;10.82;;
64282;SDS011;50497;50.720;-2.084;2023-04-24T05:47:27;23.73;;;9.57;;
64282;SDS011;50497;50.720;-2.084;2023-04-24T05:49:52;25.17;;;9.77;;
64282;SDS011;50497;50.720;-2.084;2023-04-24T05:52:18;26.20;;;9.50;;
64282;SDS011;50497;50.720;-2.084;2023-04-24T05:54:44;24.52;;;9.70;;
64282;SDS011;50497;50.720;-2.084;2023-04-24T05:57:09;25.33;;;9.38;;
64282;SDS011;50497;50.720;-2.084;2023-04-24T05:59:40;24.02;;;9.82;;
64282;SDS011;50497;50.720;-2.084;2023-04-24T06:02:08;22.13;;;9.35;;
64282;SDS011;50497;50.720;-2.084;2023-04-24T06:04:34;25.85;;;10.63;;
64282;SDS011;50497;50.720;-2.084;2023-04-24T06:07:00;24.33;;;10.20;;
64282;SDS011;50497;50.720;-2.084;2023-04-24T06:09:26;23.63;;;10.05;;
64282;SDS011;50497;50.720;-2.084;2023-04-24T06:11:51;25.00;;;9.60;;
64282;SDS011;50497;50.720;-2.084;2023-04-24T06:16:44;25.85;;;9.45;;
64282;SDS011;50497;50.720;-2.084;2023-04-24T06:19:13;23.50;;;9.85;;
64282;SDS011;50497;50.720;-2.084;2023-04-24T06:21:38;23.80;;;9.98;;
64282;SDS011;50497;50.720;-2.084;2023-04-24T06:24:04;35.80;;;16.65;;
64282;SDS011;50497;50.720;-2.084;2023-04-24T06:26:29;20.38;;;9.48;;
64282;SDS011;50497;50.720;-2.084;2023-04-24T06:28:55;22.48;;;10.18;;
64282;SDS011;50497;50.720;-2.084;2023-04-24T06:31:20;20.52;;;8.80;;
64282;SDS011;50497;50.720;-2.084;2023-04-24T06:33:46;20.77;;;8.73;;
64282;SDS011;50497;50.720;-2.084;2023-04-24T06:36:12;19.42;;;8.80;;
64282;SDS011;50497;50.720;-2.084;2023-04-24T06:38:40;20.35;;;9.05;;
64282;SDS011;50497;50.720;-2.084;2023-04-24T06:41:09;19.60;;;8.52;;
64282;SDS011;50497;50.720;-2.084;2023-04-24T06:43:35;16.75;;;8.27;;
64282;SDS011;50497;50.720;-2.084;2023-04-24T06:46:04;17.02;;;7.57;;
64282;SDS011;50497;50.720;-2.084;2023-04-24T06:48:29;18.02;;;8.10;;
64282;SDS011;50497;50.720;-2.084;2023-04-24T06:50:55;16.83;;;7.95;;
64282;SDS011;50497;50.720;-2.084;2023-04-24T06:53:20;18.10;;;7.60;;
64282;SDS011;50497;50.720;-2.084;2023-04-24T06:55:46;15.40;;;7.55;;
64282;SDS011;50497;50.720;-2.084;2023-04-24T06:58:12;15.30;;;7.57;;
64282;SDS011;50497;50.720;-2.084;2023-04-24T07:00:40;15.95;;;7.97;;
64282;SDS011;50497;50.720;-2.084;2023-04-24T07:03:06;16.70;;;7.00;;
64282;SDS011;50497;50.720;-2.084;2023-04-24T07:05:36;16.17;;;7.25;;
64282;SDS011;50497;50.720;-2.084;2023-04-24T07:08:03;15.80;;;6.78;;
64282;SDS011;50497;50.720;-2.084;2023-04-24T07:10:31;14.77;;;6.90;;
64282;SDS011;50497;50.720;-2.084;2023-04-24T07:12:56;16.27;;;7.28;;
64282;SDS011;50497;50.720;-2.084;2023-04-24T07:15:22;12.90;;;6.32;;
64282;SDS011;50497;50.720;-2.084;2023-04-24T07:17:51;13.43;;;6.50;;
64282;SDS011;50497;50.720;-2.084;2023-04-24T07:20:17;13.95;;;6.65;;
64282;SDS011;50497;50.720;-2.084;2023-04-24T07:22:42;13.82;;;6.40;;
64282;SDS011;50497;50.720;-2.084;2023-04-24T07:25:08;14.88;;;6.90;;
64282;SDS011;50497;50.720;-2.084;2023-04-24T07:27:39;14.00;;;6.10;;
64282;SDS011;50497;50.720;-2.084;2023-04-24T07:30:15;12.60;;;5.88;;
64282;SDS011;50497;50.720;-2.084;2023-04-24T07:32:42;13.10;;;5.90;;
64282;SDS011;50497;50.720;-2.084;2023-04-24T07:35:10;11.45;;;5.30;;
64282;SDS011;50497;50.720;-2.084;2023-04-24T07:37:38;14.43;;;5.43;;
64282;SDS011;50497;50.720;-2.084;2023-04-24T07:40:13;10.70;;;4.97;;
64282;SDS011;50497;50.720;-2.084;2023-04-24T07:42:39;10.13;;;4.55;;
64282;SDS011;50497;50.720;-2.084;2023-04-24T07:45:05;9.48;;;4.60;;
64282;SDS011;50497;50.720;-2.084;2023-04-24T07:47:35;19.25;;;5.43;;
64282;SDS011;50497;50.720;-2.084;2023-04-24T07:50:08;10.93;;;4.70;;
64282;SDS011;50497;50.720;-2.084;2023-04-24T07:52:34;11.65;;;4.30;;
64282;SDS011;50497;50.720;-2.084;2023-04-24T07:55:00;9.43;;;4.60;;
64282;SDS011;50497;50.720;-2.084;2023-04-24T07:57:30;9.68;;;4.13;;
64282;SDS011;50497;50.720;-2.084;2023-04-24T08:00:00;8.55;;;4.20;;
64282;SDS011;50497;50.720;-2.084;2023-04-24T08:02:28;10.13;;;4.25;;
64282;SDS011;50497;50.720;-2.084;2023-04-24T08:04:54;8.90;;;4.80;;
64282;SDS011;50497;50.720;-2.084;2023-04-24T08:07:27;9.65;;;4.47;;
64282;SDS011;50497;50.720;-2.084;2023-04-24T08:10:10;10.13;;;4.57;;
64282;SDS011;50497;50.720;-2.084;2023-04-24T08:12:47;7.95;;;3.90;;
64282;SDS011;50497;50.720;-2.084;2023-04-24T08:15:15;9.07;;;4.68;;
64282;SDS011;50497;50.720;-2.084;2023-04-24T08:17:55;8.90;;;4.40;;
64282;SDS011;50497;50.720;-2.084;2023-04-24T08:20:22;8.77;;;4.70;;
64282;SDS011;50497;50.720;-2.084;2023-04-24T08:22:47;9.90;;;5.07;;
64282;SDS011;50497;50.720;-2.084;2023-04-24T08:27:56;11.93;;;5.07;;
64282;SDS011;50497;50.720;-2.084;2023-04-24T08:30:28;13.02;;;5.47;;
64282;SDS011;50497;50.720;-2.084;2023-04-24T08:32:58;10.35;;;4.80;;
64282;SDS011;50497;50.720;-2.084;2023-04-24T08:35:27;9.32;;;4.55;;
64282;SDS011;50497;50.720;-2.084;2023-04-24T08:38:05;10.32;;;4.70;;
64282;SDS011;50497;50.720;-2.084;2023-04-24T08:40:37;10.07;;;4.55;;
64282;SDS011;50497;50.720;-2.084;2023-04-24T08:43:09;8.60;;;4.22;;
64282;SDS011;50497;50.720;-2.084;2023-04-24T08:48:08;8.13;;;4.28;;
64282;SDS011;50497;50.720;-2.084;2023-04-24T08:50:39;11.43;;;4.60;;
64282;SDS011;50497;50.720;-2.084;2023-04-24T08:53:13;9.40;;;4.80;;
64282;SDS011;50497;50.720;-2.084;2023-04-24T08:55:40;9.25;;;4.20;;
64282;SDS011;50497;50.720;-2.084;2023-04-24T08:58:19;10.30;;;4.68;;
64282;SDS011;50497;50.720;-2.084;2023-04-24T09:00:49;9.63;;;4.40;;
64282;SDS011;50497;50.720;-2.084;2023-04-24T09:05:46;9.00;;;4.18;;
64282;SDS011;50497;50.720;-2.084;2023-04-24T09:08:14;7.82;;;4.00;;
64282;SDS011;50497;50.720;-2.084;2023-04-24T09:10:43;8.25;;;3.78;;
64282;SDS011;50497;50.720;-2.084;2023-04-24T09:13:12;9.77;;;3.88;;
64282;SDS011;50497;50.720;-2.084;2023-04-24T09:15:47;11.38;;;4.30;;
64282;SDS011;50497;50.720;-2.084;2023-04-24T09:18:23;9.55;;;3.85;;
64282;SDS011;50497;50.720;-2.084;2023-04-24T09:23:31;7.53;;;3.80;;
64282;SDS011;50497;50.720;-2.084;2023-04-24T09:25:58;7.03;;;3.47;;
64282;SDS011;50497;50.720;-2.084;2023-04-24T09:28:29;8.45;;;3.25;;
64282;SDS011;50497;50.720;-2.084;2023-04-24T09:31:01;10.50;;;4.55;;
64282;SDS011;50497;50.720;-2.084;2023-04-24T09:33:39;7.20;;;3.13;;
64282;SDS011;50497;50.720;-2.084;2023-04-24T09:36:10;8.45;;;3.58;;
64282;SDS011;50497;50.720;-2.084;2023-04-24T09:38:36;6.97;;;3.20;;
64282;SDS011;50497;50.720;-2.084;2023-04-24T09:41:06;9.32;;;3.30;;
64282;SDS011;50497;50.720;-2.084;2023-04-24T09:43:40;7.70;;;3.22;;
64282;SDS011;50497;50.720;-2.084;2023-04-24T09:46:19;8.93;;;3.63;;
64282;SDS011;50497;50.720;-2.084;2023-04-24T09:49:07;10.25;;;3.55;;
64282;SDS011;50497;50.720;-2.084;2023-04-24T09:51:42;8.68;;;2.95;;
64282;SDS011;50497;50.720;-2.084;2023-04-24T09:54:15;7.45;;;3.20;;
64282;SDS011;50497;50.720;-2.084;2023-04-24T09:56:50;8.05;;;3.40;;
64282;SDS011;50497;50.720;-2.084;2023-04-24T09:59:21;8.15;;;3.20;;
64282;SDS011;50497;50.720;-2.084;2023-04-24T10:01:54;10.57;;;3.40;;
64282;SDS011;50497;50.720;-2.084;2023-04-24T10:04:24;9.05;;;3.30;;
64282;SDS011;50497;50.720;-2.084;2023-04-24T10:06:55;8.65;;;2.92;;
64282;SDS011;50497;50.720;-2.084;2023-04-24T10:09:35;8.45;;;2.90;;
64282;SDS011;50497;50.720;-2.084;2023-04-24T10:12:00;7.97;;;2.78;;
64282;SDS011;50497;50.720;-2.084;2023-04-24T10:14:27;10.18;;;3.45;;
64282;SDS011;50497;50.720;-2.084;2023-04-24T10:17:02;8.80;;;3.10;;
64282;SDS011;50497;50.720;-2.084;2023-04-24T10:19:33;8.65;;;3.10;;
64282;SDS011;50497;50.720;-2.084;2023-04-24T10:22:04;9.73;;;3.33;;
64282;SDS011;50497;50.720;-2.084;2023-04-24T10:24:40;8.35;;;3.20;;
64282;SDS011;50497;50.720;-2.084;2023-04-24T10:27:09;8.30;;;2.92;;
64282;SDS011;50497;50.720;-2.084;2023-04-24T10:29:36;9.90;;;3.92;;
64282;SDS011;50497;50.720;-2.084;2023-04-24T10:32:13;10.38;;;3.30;;
64282;SDS011;50497;50.720;-2.084;2023-04-24T10:34:50;8.70;;;3.60;;
64282;SDS011;50497;50.720;-2.084;2023-04-24T10:37:32;9.38;;;4.00;;
64282;SDS011;50497;50.720;-2.084;2023-04-24T10:40:02;9.25;;;3.10;;
64282;SDS011;50497;50.720;-2.084;2023-04-24T10:42:57;9.70;;;3.22;;
64282;SDS011;50497;50.720;-2.084;2023-04-24T10:45:24;10.30;;;3.60;;
64282;SDS011;50497;50.720;-2.084;2023-04-24T10:48:08;10.32;;;3.80;;
64282;SDS011;50497;50.720;-2.084;2023-04-24T10:53:39;12.80;;;4.28;;
64282;SDS011;50497;50.720;-2.084;2023-04-24T10:56:15;10.27;;;3.70;;
64282;SDS011;50497;50.720;-2.084;2023-04-24T10:58:45;8.88;;;3.53;;
64282;SDS011;50497;50.720;-2.084;2023-04-24T11:01:23;10.88;;;3.50;;
64282;SDS011;50497;50.720;-2.084;2023-04-24T11:03:54;9.82;;;3.53;;
64282;SDS011;50497;50.720;-2.084;2023-04-24T11:06:29;9.88;;;2.97;;
64282;SDS011;50497;50.720;-2.084;2023-04-24T11:08:59;11.50;;;3.60;;
64282;SDS011;50497;50.720;-2.084;2023-04-24T11:11:47;7.88;;;3.42;;
64282;SDS011;50497;50.720;-2.084;2023-04-24T11:14:19;10.95;;;3.67;;
64282;SDS011;50497;50.720;-2.084;2023-04-24T11:16:51;7.45;;;3.33;;
64282;SDS011;50497;50.720;-2.084;2023-04-24T11:19:22;10.13;;;3.55;;
64282;SDS011;50497;50.720;-2.084;2023-04-24T11:22:03;9.27;;;3.80;;
64282;SDS011;50497;50.720;-2.084;2023-04-24T11:24:48;9.48;;;3.72;;
64282;SDS011;50497;50.720;-2.084;2023-04-24T11:27:20;12.88;;;3.53;;
64282;SDS011;50497;50.720;-2.084;2023-04-24T11:29:58;10.80;;;3.47;;
64282;SDS011;50497;50.720;-2.084;2023-04-24T11:35:22;10.05;;;3.55;;
64282;SDS011;50497;50.720;-2.084;2023-04-24T11:37:50;7.30;;;3.10;;
64282;SDS011;50497;50.720;-2.084;2023-04-24T11:40:23;9.60;;;3.55;;
64282;SDS011;50497;50.720;-2.084;2023-04-24T11:42:52;10.52;;;3.67;;
64282;SDS011;50497;50.720;-2.084;2023-04-24T11:45:25;8.32;;;3.28;;
64282;SDS011;50497;50.720;-2.084;2023-04-24T11:47:52;10.52;;;3.70;;
64282;SDS011;50497;50.720;-2.084;2023-04-24T11:50:26;10.10;;;4.00;;
64282;SDS011;50497;50.720;-2.084;2023-04-24T11:52:56;10.68;;;3.50;;
64282;SDS011;50497;50.720;-2.084;2023-04-24T11:55:32;13.80;;;3.70;;
64282;SDS011;50497;50.720;-2.084;2023-04-24T11:58:00;10.90;;;2.97;;
64282;SDS011;50497;50.720;-2.084;2023-04-24T12:00:38;10.32;;;4.13;;
64282;SDS011;50497;50.720;-2.084;2023-04-24T12:03:12;12.93;;;4.00;;
64282;SDS011;50497;50.720;-2.084;2023-04-24T12:05:42;11.73;;;4.00;;
64282;SDS011;50497;50.720;-2.084;2023-04-24T12:08:13;10.68;;;3.50;;
64282;SDS011;50497;50.720;-2.084;2023-04-24T12:10:59;11.32;;;3.67;;
64282;SDS011;50497;50.720;-2.084;2023-04-24T12:13:38;8.95;;;3.20;;
64282;SDS011;50497;50.720;-2.084;2023-04-24T12:16:09;11.60;;;3.80;;
64282;SDS011;50497;50.720;-2.084;2023-04-24T12:18:45;13.52;;;4.03;;
64282;SDS011;50497;50.720;-2.084;2023-04-24T12:21:18;10.80;;;3.72;;
64282;SDS011;50497;50.720;-2.084;2023-04-24T12:23:48;11.63;;;3.45;;
64282;SDS011;50497;50.720;-2.084;2023-04-24T12:26:20;10.57;;;3.60;;
64282;SDS011;50497;50.720;-2.084;2023-04-24T12:28:50;12.73;;;3.80;;
64282;SDS011;50497;50.720;-2.084;2023-04-24T12:31:26;13.43;;;3.47;;
64282;SDS011;50497;50.720;-2.084;2023-04-24T12:34:01;12.07;;;3.58;;
64282;SDS011;50497;50.720;-2.084;2023-04-24T12:36:37;9.98;;;3.28;;
64282;SDS011;50497;50.720;-2.084;2023-04-24T12:39:19;12.88;;;3.78;;
64282;SDS011;50497;50.720;-2.084;2023-04-24T12:41:57;9.93;;;3.17;;
64282;SDS011;50497;50.720;-2.084;2023-04-24T12:44:35;9.77;;;3.30;;
64282;SDS011;50497;50.720;-2.084;2023-04-24T12:47:03;10.10;;;3.70;;
64282;SDS011;50497;50.720;-2.084;2023-04-24T12:49:34;10.10;;;3.63;;
64282;SDS011;50497;50.720;-2.084;2023-04-24T12:52:05;10.52;;;3.45;;
64282;SDS011;50497;50.720;-2.084;2023-04-24T12:54:35;12.32;;;3.85;;
64282;SDS011;50497;50.720;-2.084;2023-04-24T12:57:15;11.07;;;3.13;;
64282;SDS011;50497;50.720;-2.084;2023-04-24T12:59:45;8.02;;;2.85;;
64282;SDS011;50497;50.720;-2.084;2023-04-24T13:02:16;7.90;;;3.22;;
64282;SDS011;50497;50.720;-2.084;2023-04-24T13:04:49;11.20;;;3.65;;
64282;SDS011;50497;50.720;-2.084;2023-04-24T13:07:19;11.07;;;3.45;;
64282;SDS011;50497;50.720;-2.084;2023-04-24T13:09:47;8.45;;;3.15;;
64282;SDS011;50497;50.720;-2.084;2023-04-24T13:12:17;10.20;;;3.30;;
64282;SDS011;50497;50.720;-2.084;2023-04-24T13:14:51;12.73;;;3.25;;
64282;SDS011;50497;50.720;-2.084;2023-04-24T13:17:18;8.07;;;3.10;;
64282;SDS011;50497;50.720;-2.084;2023-04-24T13:19:51;9.65;;;3.53;;
64282;SDS011;50497;50.720;-2.084;2023-04-24T13:22:20;9.02;;;2.97;;
64282;SDS011;50497;50.720;-2.084;2023-04-24T13:24:46;11.95;;;3.10;;
64282;SDS011;50497;50.720;-2.084;2023-04-24T13:27:19;10.88;;;3.10;;
64282;SDS011;50497;50.720;-2.084;2023-04-24T13:29:52;8.63;;;2.72;;
64282;SDS011;50497;50.720;-2.084;2023-04-24T13:32:26;7.80;;;2.70;;
64282;SDS011;50497;50.720;-2.084;2023-04-24T13:34:57;7.72;;;2.53;;
64282;SDS011;50497;50.720;-2.084;2023-04-24T13:37:33;11.40;;;2.97;;
64282;SDS011;50497;50.720;-2.084;2023-04-24T13:40:10;9.13;;;2.80;;
64282;SDS011;50497;50.720;-2.084;2023-04-24T13:42:44;8.75;;;2.90;;
64282;SDS011;50497;50.720;-2.084;2023-04-24T13:45:16;9.45;;;2.80;;
64282;SDS011;50497;50.720;-2.084;2023-04-24T13:48:00;9.25;;;2.92;;
64282;SDS011;50497;50.720;-2.084;2023-04-24T13:50:32;8.55;;;2.90;;
64282;SDS011;50497;50.720;-2.084;2023-04-24T13:53:04;10.70;;;3.08;;
64282;SDS011;50497;50.720;-2.084;2023-04-24T13:55:37;11.70;;;3.78;;
64282;SDS011;50497;50.720;-2.084;2023-04-24T13:58:09;9.27;;;3.40;;
64282;SDS011;50497;50.720;-2.084;2023-04-24T14:00:37;10.98;;;3.33;;
64282;SDS011;50497;50.720;-2.084;2023-04-24T14:03:13;10.32;;;3.90;;
64282;SDS011;50497;50.720;-2.084;2023-04-24T14:05:40;7.68;;;3.72;;
64282;SDS011;50497;50.720;-2.084;2023-04-24T14:08:15;9.52;;;4.18;;
64282;SDS011;50497;50.720;-2.084;2023-04-24T14:10:47;7.55;;;3.70;;
64282;SDS011;50497;50.720;-2.084;2023-04-24T14:13:22;8.90;;;4.30;;
64282;SDS011;50497;50.720;-2.084;2023-04-24T14:15:52;7.53;;;3.78;;
64282;SDS011;50497;50.720;-2.084;2023-04-24T14:18:22;7.55;;;3.60;;
64282;SDS011;50497;50.720;-2.084;2023-04-24T14:20:53;8.32;;;3.85;;
64282;SDS011;50497;50.720;-2.084;2023-04-24T14:23:23;7.53;;;3.95;;
64282;SDS011;50497;50.720;-2.084;2023-04-24T14:25:55;9.93;;;4.25;;
64282;SDS011;50497;50.720;-2.084;2023-04-24T14:28:20;7.30;;;3.65;;
64282;SDS011;50497;50.720;-2.084;2023-04-24T14:30:49;9.70;;;3.97;;
64282;SDS011;50497;50.720;-2.084;2023-04-24T14:33:15;8.38;;;4.10;;
64282;SDS011;50497;50.720;-2.084;2023-04-24T14:35:49;9.13;;;4.40;;
64282;SDS011;50497;50.720;-2.084;2023-04-24T14:38:16;8.45;;;3.80;;
64282;SDS011;50497;50.720;-2.084;2023-04-24T14:40:45;9.10;;;3.67;;
64282;SDS011;50497;50.720;-2.084;2023-04-24T14:43:13;7.53;;;3.40;;
64282;SDS011;50497;50.720;-2.084;2023-04-24T14:45:42;7.07;;;3.40;;
64282;SDS011;50497;50.720;-2.084;2023-04-24T14:48:19;7.28;;;3.15;;
64282;SDS011;50497;50.720;-2.084;2023-04-24T14:50:53;7.43;;;3.55;;
64282;SDS011;50497;50.720;-2.084;2023-04-24T14:53:31;8.77;;;3.17;;
64282;SDS011;50497;50.720;-2.084;2023-04-24T14:56:04;7.88;;;3.13;;
64282;SDS011;50497;50.720;-2.084;2023-04-24T14:58:50;7.30;;;3.05;;